Phoenix, AZ

5:41 AM MST on February 21, 2017 (GMT -0700)
Phoenix Sky Harbor International | | Change Station

Elev 1135 ft 33.43 °N, 112.01 °W | Updated 50 minutes ago

Clear
Clear
53 °F
Feels Like 53 °F
N
4
Wind Variable Wind from ESE

Today
High -- | Low -- °F
--% Chance of Precip.
Yesterday
High -- | Low -- °F
Precip. -- in
Pressure 30.25 in
Visibility 10.0 miles
Clouds Few 20000 ft
Dew Point 50 °F
Humidity 89%
Rainfall 0.00 in
Snow Depth Not available.
7:05 AM 6:18 PM
Waning Crescent, 25% visible
METAR KPHX 211151Z 11003KT 10SM FEW200 12/10 A3027 RMK AO2 SLP243 T01170100 10150 20117 55002 $
Pressure 30.25 in
Visibility 10.0 miles
Clouds Few 20000 ft
Dew Point 50 °F
Humidity 89%
Rainfall 0.00 in
Snow Depth Not available.
7:05 AM 6:18 PM
Waning Crescent, 25% visible
METAR KPHX 211151Z 11003KT 10SM FEW200 12/10 A3027 RMK AO2 SLP243 T01170100 10150 20117 55002 $

Get Your Daily Forecast Email!

Thanks for signing up!

Be on the lookout for a verification email in your inbox.

You'll start receiving the daily forecast at 8 AM.

×

10-Day Weather Forecast

Almanac

Astronomy

Feb. 21, 2017 Rise Set
Actual Time
Civil Twilight
Nautical Twilight
Astronomical Twilight
Moon
Length of Visible Light
Length of Day
Tomorrow will be .
, % of the Moon is Illuminated

Today's Extremes

State Highs State Lows

Community

WunderPhotos

Upload Photos

1,962,540 photos uploaded!

WunderBlog® & News

Nearby

Air Quality

  Air Quality AQ Index Pollutant
Not available.

Snow Depth

Station Depth Elevation

Earthquake Activity

City Distance Mag. Time & Date
Minimum magnitude displayed is 2.5.

Coastal Water Temperatures

Place Temperature

Stations

Nearby Weather Stations

Station Location Temp. Windchill Dew Point Humidity Wind Precip. Elev Updated Type
                   

Watches & Warnings

There are currently no watches in effect.